In Rescue
 
Open Full Screen Window  High Contrast Mode
Wind Gusting 16 knots
09
May 13, 2021 10:48 AM CDT
Weather Information
Wind Direction
  200 °
Wind Speed
  09 kt (10 mph)
Wind Gust
  16 kt (18 mph)
Variable Wind
150°
210°
Altimeter
30.23 in
Visibility
10 SM
Temperature
19° C
66° F
Dewpoint
04° C
39° F
Humidity
37%
1hr Rain Fall
00.00 in.
24hr Rain Fall
00.00 in.
Sky Condition
Scattered @ 9,500 ft
VFR

METAR KVVV 131548Z AUTO 20009G16KT 156V216 10SM SCT095 19/04 A3023 RMK AO2

FAA Disclaimer: The data displayed is for advisory purposes only and is not to be used for flight planning or operations.